Time;durP1;ratioP1;P1;durP2;ratioP2;P2;SDS_P1;SDS_P2;PMS_P1;PMS_P2;Temp;Humidity;BMP_temperature;BMP_pressure;BME280_temperature;BME280_humidity;BME280_pressure;Samples;Min_cycle;Max_cycle;Signal;HPM_P1;HPM_P2
2022/03/23 00:02:05;;;;;;;;;;;1.30;93.70;;;;;;5043021;28;19909;-70
2022/03/23 00:04:31;;;;;;;;;;;1.30;93.50;;;;;;5035377;28;19965;-70
2022/03/23 00:06:57;;;;;;;;;;;1.40;93.70;;;;;;5046025;28;20003;-70
2022/03/23 00:18:50;;;;;;;;;;;0.90;94.30;;;;;;5052249;28;19924;-70
2022/03/23 00:21:17;;;;;;;;;;;0.80;94.50;;;;;;5031453;28;19963;-70
2022/03/23 00:23:43;;;;;;;;;;;0.70;95.00;;;;;;5038577;28;19913;-70
2022/03/23 00:26:08;;;;;;;;;;;0.50;95.40;;;;;;5037077;28;19909;-70
2022/03/23 00:28:34;;;;;;;;;;;0.50;96.00;;;;;;5034271;28;20353;-70
2022/03/23 00:30:59;;;;;;;;;;;0.60;96.40;;;;;;5043355;28;19943;-70
2022/03/23 00:33:25;;;;;;;;;;;0.50;96.80;;;;;;5035395;28;19909;-70
2022/03/23 00:35:50;;;;;;;;;;;0.30;97.70;;;;;;5032878;28;19943;-70
2022/03/23 00:38:17;;;;;;;;;;;0.60;96.90;;;;;;5032867;28;19910;-71
2022/03/23 00:40:44;;;;;;;;;;;0.60;96.30;;;;;;5042353;28;19913;-70
2022/03/23 00:43:10;;;;;;;;;;;0.30;97.00;;;;;;5032960;28;20370;-70
2022/03/23 00:45:36;;;;;;;;;;;0.40;97.30;;;;;;5032730;28;20429;-70
2022/03/23 00:48:02;;;;;;;;;;;0.50;96.90;;;;;;5032554;28;20004;-70
2022/03/23 00:50:27;;;;;;;;;;;0.50;96.50;;;;;;5038602;28;20020;-70
2022/03/23 00:52:53;;;;;;;;;;;0.40;96.80;;;;;;5035310;28;20280;-69
2022/03/23 00:55:18;;;;;;;;;;;0.40;96.90;;;;;;5032268;28;19913;-70
2022/03/23 00:57:44;;;;;;;;;;;0.60;96.70;;;;;;5032539;28;19909;-70
2022/03/23 01:00:12;;;;;;;;;;;0.50;96.90;;;;;;5032458;28;19909;-70
2022/03/23 01:02:41;;;;;;;;;;;0.40;97.10;;;;;;5032175;28;19913;-70
2022/03/23 01:05:08;;;;;;;;;;;0.30;97.60;;;;;;5032177;28;19941;-70
2022/03/23 01:07:34;;;;;;;;;;;0.20;98.10;;;;;;5031089;28;19913;-71
2022/03/23 01:09:59;;;;;;;;;;;0.00;98.50;;;;;;5031704;28;19954;-71
2022/03/23 01:12:25;;;;;;;;;;;-0.20;98.80;;;;;;5032139;28;19909;-71
2022/03/23 01:14:51;;;;;;;;;;;-0.20;99.10;;;;;;5031931;28;19920;-71
2022/03/23 01:17:16;;;;;;;;;;;-0.20;99.70;;;;;;5032022;28;19917;-71
2022/03/23 01:19:42;;;;;;;;;;;-0.10;99.00;;;;;;5037378;28;19909;-71
2022/03/23 01:22:08;;;;;;;;;;;-0.20;99.00;;;;;;5044591;28;19928;-71
2022/03/23 01:24:34;;;;;;;;;;;-0.20;98.60;;;;;;5031982;28;19909;-71
2022/03/23 01:27:01;;;;;;;;;;;-0.30;98.50;;;;;;5031976;28;20007;-71
2022/03/23 01:29:27;;;;;;;;;;;-0.20;98.00;;;;;;5031967;28;20348;-71
2022/03/23 01:31:52;;;;;;;;;;;-0.20;98.30;;;;;;5031982;28;20083;-71
2022/03/23 01:34:18;;;;;;;;;;;-0.40;98.80;;;;;;5031535;28;19917;-71
2022/03/23 01:36:44;;;;;;;;;;;-0.30;98.30;;;;;;5032013;28;19909;-71
2022/03/23 01:39:09;;;;;;;;;;;-0.50;98.60;;;;;;5031870;28;19944;-71
2022/03/23 01:41:38;;;;;;;;;;;-0.50;99.90;;;;;;5031702;28;19916;-71
2022/03/23 01:44:19;;;;;;;;;;;-0.70;99.90;;;;;;5031594;28;20008;-71
2022/03/23 01:47:06;;;;;;;;;;;-0.60;99.90;;;;;;5032400;28;20004;-71
2022/03/23 01:49:32;;;;;;;;;;;-0.60;99.90;;;;;;5038771;28;19908;-70
2022/03/23 01:51:57;;;;;;;;;;;-0.60;99.90;;;;;;5043247;28;19909;-71
2022/03/23 01:54:23;;;;;;;;;;;-0.30;99.90;;;;;;5032788;28;19919;-71
2022/03/23 01:56:49;;;;;;;;;;;-0.20;99.90;;;;;;5031869;28;20418;-70
2022/03/23 01:59:15;;;;;;;;;;;-0.20;99.90;;;;;;5031452;28;19916;-71
2022/03/23 02:01:40;;;;;;;;;;;-0.40;99.90;;;;;;5031492;28;19905;-71
2022/03/23 02:04:06;;;;;;;;;;;-0.40;99.90;;;;;;5031573;28;20350;-71
2022/03/23 02:06:32;;;;;;;;;;;0.00;99.90;;;;;;5031563;28;19966;-71
2022/03/23 02:08:57;;;;;;;;;;;-0.10;99.90;;;;;;5031504;28;19916;-71
2022/03/23 02:11:24;;;;;;;;;;;-0.40;99.90;;;;;;5030431;28;19909;-70
2022/03/23 02:13:49;;;;;;;;;;;-0.40;99.90;;;;;;5031134;28;19913;-71
2022/03/23 02:16:15;;;;;;;;;;;-0.40;99.90;;;;;;5031408;28;19924;-71
2022/03/23 02:18:40;;;;;;;;;;;-0.30;99.90;;;;;;5031439;28;19909;-71
2022/03/23 02:21:06;;;;;;;;;;;-0.30;99.90;;;;;;5039571;28;19963;-71
2022/03/23 02:23:31;;;;;;;;;;;-0.50;99.90;;;;;;5035699;28;20396;-71
2022/03/23 02:25:59;;;;;;;;;;;-0.40;99.90;;;;;;5035628;28;19913;-71
2022/03/23 02:28:25;;;;;;;;;;;-0.20;99.90;;;;;;5035109;28;19913;-71
2022/03/23 02:30:51;;;;;;;;;;;0.20;99.90;;;;;;5035188;28;19963;-71
2022/03/23 02:33:18;;;;;;;;;;;-0.10;99.90;;;;;;5034869;28;19917;-70
2022/03/23 02:35:44;;;;;;;;;;;0.10;99.90;;;;;;5034971;28;19974;-71
2022/03/23 02:38:09;;;;;;;;;;;-0.10;99.90;;;;;;5034650;28;19937;-71
2022/03/23 02:40:35;;;;;;;;;;;-0.10;99.90;;;;;;5034682;28;19992;-71
2022/03/23 02:43:01;;;;;;;;;;;0.00;99.90;;;;;;5034681;28;20267;-71
2022/03/23 02:45:26;;;;;;;;;;;-0.10;99.90;;;;;;5035170;28;20354;-71
2022/03/23 02:47:52;;;;;;;;;;;-0.20;99.90;;;;;;5035131;28;19909;-70
2022/03/23 02:50:18;;;;;;;;;;;0.10;99.90;;;;;;5041198;28;19920;-70
2022/03/23 03:04:01;;;;;;;;;;;-0.30;99.90;;;;;;5047517;28;19976;-70
2022/03/23 03:06:27;;;;;;;;;;;-0.50;99.90;;;;;;5034916;28;20027;-70
2022/03/23 03:08:52;;;;;;;;;;;-0.50;99.90;;;;;;5034528;28;19909;-71
2022/03/23 03:11:19;;;;;;;;;;;-0.70;99.90;;;;;;5034427;28;20000;-70
2022/03/23 03:13:45;;;;;;;;;;;-0.60;99.90;;;;;;5034174;28;19940;-70
2022/03/23 03:16:10;;;;;;;;;;;-0.50;99.90;;;;;;5033894;28;19940;-71
2022/03/23 03:18:36;;;;;;;;;;;-0.60;99.90;;;;;;5034186;28;20389;-71
2022/03/23 03:21:03;;;;;;;;;;;-0.60;99.90;;;;;;5051610;28;19955;-71
2022/03/23 03:23:30;;;;;;;;;;;-0.90;99.90;;;;;;5046970;28;19966;-70
2022/03/23 03:25:56;;;;;;;;;;;-0.70;99.90;;;;;;5034275;28;19910;-70
2022/03/23 03:28:22;;;;;;;;;;;-0.60;99.90;;;;;;5034067;28;20004;-70
2022/03/23 03:30:47;;;;;;;;;;;-0.80;99.90;;;;;;5032646;28;20055;-70
2022/03/23 03:33:13;;;;;;;;;;;-0.70;99.90;;;;;;5032971;28;19916;-70
2022/03/23 03:35:38;;;;;;;;;;;-0.70;99.90;;;;;;5041416;28;19913;-70
2022/03/23 03:38:04;;;;;;;;;;;-0.70;99.90;;;;;;5042221;28;20051;-70
2022/03/23 03:40:29;;;;;;;;;;;-0.90;99.90;;;;;;5033666;28;19916;-70
2022/03/23 03:42:55;;;;;;;;;;;-0.90;99.90;;;;;;5033888;28;19909;-70
2022/03/23 03:45:21;;;;;;;;;;;-0.90;99.90;;;;;;5033576;28;19909;-70
2022/03/23 03:47:46;;;;;;;;;;;-0.40;99.90;;;;;;5033695;28;19913;-70
2022/03/23 03:50:12;;;;;;;;;;;0.00;99.90;;;;;;5033543;28;19913;-70
2022/03/23 03:52:37;;;;;;;;;;;0.10;99.90;;;;;;5033475;28;20397;-70
2022/03/23 03:55:03;;;;;;;;;;;-0.20;99.90;;;;;;5033335;28;19953;-70
2022/03/23 03:57:29;;;;;;;;;;;-0.40;99.90;;;;;;5033577;28;19944;-71
2022/03/23 03:59:54;;;;;;;;;;;-0.70;99.90;;;;;;5033484;28;20353;-71
2022/03/23 04:02:20;;;;;;;;;;;-0.90;99.90;;;;;;5033243;28;19963;-71
2022/03/23 04:04:46;;;;;;;;;;;-0.90;99.90;;;;;;5038689;28;19963;-71
2022/03/23 04:07:11;;;;;;;;;;;-1.20;99.90;;;;;;5046411;28;19909;-70
2022/03/23 04:09:37;;;;;;;;;;;-1.40;99.90;;;;;;5033409;28;20345;-70
2022/03/23 04:12:03;;;;;;;;;;;-1.50;99.90;;;;;;5033423;28;19910;-70
2022/03/23 04:14:28;;;;;;;;;;;-1.50;99.90;;;;;;5032639;28;19940;-71
2022/03/23 04:16:54;;;;;;;;;;;-1.40;99.90;;;;;;5039106;28;19960;-71
2022/03/23 04:19:19;;;;;;;;;;;-1.30;99.90;;;;;;5033178;28;19916;-70
2022/03/23 04:21:45;;;;;;;;;;;-1.20;99.90;;;;;;5033023;28;20374;-70
2022/03/23 04:24:11;;;;;;;;;;;-1.20;99.90;;;;;;5032961;28;19909;-72
2022/03/23 04:26:36;;;;;;;;;;;-1.20;99.90;;;;;;5033272;28;19916;-71
2022/03/23 04:29:02;;;;;;;;;;;-1.30;99.90;;;;;;5033005;28;19917;-70
2022/03/23 04:31:27;;;;;;;;;;;-1.40;99.90;;;;;;5032771;28;19985;-70
2022/03/23 04:33:53;;;;;;;;;;;-1.10;99.90;;;;;;5037550;28;20368;-70
2022/03/23 04:36:19;;;;;;;;;;;-0.90;99.90;;;;;;5040446;28;19909;-70
2022/03/23 04:38:44;;;;;;;;;;;-1.00;99.90;;;;;;5033157;28;19917;-71
2022/03/23 04:41:10;;;;;;;;;;;-1.00;99.90;;;;;;5033026;28;20330;-70
2022/03/23 04:43:38;;;;;;;;;;;-1.00;99.90;;;;;;5032773;28;20000;-70
2022/03/23 04:46:03;;;;;;;;;;;-1.20;99.90;;;;;;5032804;28;19912;-71
2022/03/23 04:48:29;;;;;;;;;;;-1.40;99.90;;;;;;5033003;28;20366;-70
2022/03/23 04:50:54;;;;;;;;;;;-1.30;99.90;;;;;;5032860;28;19909;-70
2022/03/23 04:53:21;;;;;;;;;;;-1.10;99.90;;;;;;5032590;28;19925;-70
2022/03/23 04:55:47;;;;;;;;;;;-1.10;99.90;;;;;;5032659;28;19939;-70
2022/03/23 04:58:12;;;;;;;;;;;-1.30;99.90;;;;;;5032654;28;19909;-70
2022/03/23 05:00:38;;;;;;;;;;;-1.20;99.90;;;;;;5032570;28;19920;-70
2022/03/23 05:03:06;;;;;;;;;;;-1.20;99.90;;;;;;5032382;28;19912;-70
2022/03/23 05:05:31;;;;;;;;;;;-1.20;99.90;;;;;;5040649;28;19913;-70
2022/03/23 05:07:57;;;;;;;;;;;-1.20;99.90;;;;;;5043279;28;20381;-70
2022/03/23 05:10:22;;;;;;;;;;;-1.20;99.90;;;;;;5032524;28;20451;-70
2022/03/23 05:12:49;;;;;;;;;;;-1.20;99.90;;;;;;5032331;28;19917;-70
2022/03/23 05:15:15;;;;;;;;;;;-1.00;99.90;;;;;;5039515;28;20011;-70
2022/03/23 05:17:40;;;;;;;;;;;-1.10;99.90;;;;;;5032276;28;19963;-70
2022/03/23 05:20:07;;;;;;;;;;;-1.30;99.90;;;;;;5031821;28;19917;-70
2022/03/23 05:22:33;;;;;;;;;;;-1.40;99.90;;;;;;5032055;28;19913;-70
2022/03/23 05:24:58;;;;;;;;;;;-1.40;99.90;;;;;;5032187;28;20381;-70
2022/03/23 05:27:24;;;;;;;;;;;-1.20;99.90;;;;;;5032131;28;20266;-71
2022/03/23 05:29:50;;;;;;;;;;;-1.20;99.90;;;;;;5030899;28;19959;-70
2022/03/23 05:32:18;;;;;;;;;;;-1.10;99.90;;;;;;5032136;28;19995;-71
2022/03/23 05:34:48;;;;;;;;;;;-1.10;99.90;;;;;;5036310;28;19975;-70
2022/03/23 05:37:14;;;;;;;;;;;-1.20;99.90;;;;;;5037419;28;20389;-70
2022/03/23 05:39:40;;;;;;;;;;;-1.30;99.90;;;;;;5031843;28;20016;-70
2022/03/23 05:42:05;;;;;;;;;;;-1.30;99.90;;;;;;5031731;28;19915;-71
2022/03/23 05:44:31;;;;;;;;;;;-1.40;99.90;;;;;;5031572;28;20366;-70
2022/03/23 05:46:57;;;;;;;;;;;-1.30;99.90;;;;;;5031901;28;19963;-71
2022/03/23 05:49:22;;;;;;;;;;;-1.20;99.90;;;;;;5030618;28;19909;-70
2022/03/23 05:51:48;;;;;;;;;;;-1.30;99.90;;;;;;5031865;28;20377;-71
2022/03/23 05:54:13;;;;;;;;;;;-1.10;99.90;;;;;;5031474;28;20019;-70
2022/03/23 05:56:39;;;;;;;;;;;-1.10;99.90;;;;;;5032284;28;19909;-71
2022/03/23 05:59:04;;;;;;;;;;;-0.90;99.90;;;;;;5035671;28;19913;-71
2022/03/23 06:01:32;;;;;;;;;;;-1.00;99.90;;;;;;5035629;28;20004;-70
2022/03/23 06:03:57;;;;;;;;;;;-1.00;99.90;;;;;;5045127;28;19995;-70
2022/03/23 06:06:23;;;;;;;;;;;-0.90;99.90;;;;;;5048307;28;20318;-71
2022/03/23 06:08:48;;;;;;;;;;;-0.80;99.90;;;;;;5035653;28;19913;-71
2022/03/23 06:11:14;;;;;;;;;;;-0.80;99.90;;;;;;5035318;28;20425;-70
2022/03/23 06:13:39;;;;;;;;;;;-0.80;99.90;;;;;;5035679;28;19909;-71
2022/03/23 06:16:06;;;;;;;;;;;-0.80;99.90;;;;;;5035653;28;19921;-71
2022/03/23 06:18:31;;;;;;;;;;;-0.90;99.90;;;;;;5035354;28;19913;-71
2022/03/23 06:20:57;;;;;;;;;;;-0.70;99.90;;;;;;5035561;28;19955;-71
2022/03/23 06:23:23;;;;;;;;;;;-0.50;99.90;;;;;;5035125;28;19916;-71
2022/03/23 06:25:48;;;;;;;;;;;-0.20;99.90;;;;;;5035423;28;19909;-71
2022/03/23 06:28:14;;;;;;;;;;;0.00;99.90;;;;;;5035311;28;19916;-71
2022/03/23 06:30:40;;;;;;;;;;;0.20;99.90;;;;;;5035015;28;19913;-71
2022/03/23 06:33:06;;;;;;;;;;;0.20;99.90;;;;;;5034858;28;19913;-71
2022/03/23 06:35:31;;;;;;;;;;;0.30;99.90;;;;;;5044131;28;19921;-71
2022/03/23 06:37:57;;;;;;;;;;;0.30;99.90;;;;;;5042443;28;19909;-71
2022/03/23 06:40:22;;;;;;;;;;;0.30;99.90;;;;;;5034894;28;19909;-71
2022/03/23 06:42:48;;;;;;;;;;;0.20;99.90;;;;;;5034746;28;19916;-71
2022/03/23 06:45:13;;;;;;;;;;;0.20;99.90;;;;;;5033390;28;20300;-71
2022/03/23 06:47:39;;;;;;;;;;;0.30;99.90;;;;;;5034815;28;20526;-71
2022/03/23 06:50:05;;;;;;;;;;;0.40;99.90;;;;;;5034644;28;20408;-71
2022/03/23 06:52:31;;;;;;;;;;;0.50;99.90;;;;;;5034567;28;19948;-71
2022/03/23 06:54:56;;;;;;;;;;;0.70;99.90;;;;;;5034170;28;19975;-71
2022/03/23 06:57:21;;;;;;;;;;;1.00;99.90;;;;;;5034525;28;19913;-71
2022/03/23 06:59:47;;;;;;;;;;;1.20;99.90;;;;;;5034559;28;20448;-71
2022/03/23 07:02:13;;;;;;;;;;;1.50;99.90;;;;;;5034448;28;19956;-71
2022/03/23 07:04:39;;;;;;;;;;;1.70;99.90;;;;;;5039349;28;20445;-71
2022/03/23 07:07:05;;;;;;;;;;;1.90;99.90;;;;;;5046122;28;19944;-71
2022/03/23 07:09:34;;;;;;;;;;;2.30;99.90;;;;;;5033193;28;19909;-71
2022/03/23 07:12:00;;;;;;;;;;;2.60;99.90;;;;;;5053436;28;20007;-71
2022/03/23 07:14:27;;;;;;;;;;;2.60;99.90;;;;;;5053047;28;20361;-71
2022/03/23 07:16:52;;;;;;;;;;;2.70;99.90;;;;;;5053268;28;20008;-71
2022/03/23 07:19:18;;;;;;;;;;;2.90;99.90;;;;;;5051952;28;20007;-71
2022/03/23 07:21:43;;;;;;;;;;;3.10;99.90;;;;;;5053213;28;19949;-71
2022/03/23 07:24:10;;;;;;;;;;;3.30;99.90;;;;;;5052832;28;19909;-71
2022/03/23 07:26:35;;;;;;;;;;;3.40;99.90;;;;;;5053222;28;20007;-71
2022/03/23 07:29:01;;;;;;;;;;;3.60;99.90;;;;;;5053074;28;19966;-71
2022/03/23 07:31:27;;;;;;;;;;;3.80;99.90;;;;;;5052954;28;19959;-71
2022/03/23 07:33:52;;;;;;;;;;;4.00;99.90;;;;;;5050384;28;19954;-71
2022/03/23 07:36:19;;;;;;;;;;;4.20;99.90;;;;;;5042786;28;19913;-71
2022/03/23 07:38:44;;;;;;;;;;;4.40;99.90;;;;;;5033893;28;19917;-71
2022/03/23 07:41:09;;;;;;;;;;;4.50;99.90;;;;;;5033947;28;19909;-71
2022/03/23 07:43:35;;;;;;;;;;;4.80;99.90;;;;;;5033585;28;20305;-71
2022/03/23 07:46:01;;;;;;;;;;;5.00;99.80;;;;;;5033906;28;19909;-71
2022/03/23 07:48:26;;;;;;;;;;;5.10;99.40;;;;;;5033607;28;20069;-71
2022/03/23 07:50:52;;;;;;;;;;;5.30;98.80;;;;;;5033804;28;19961;-71
2022/03/23 07:53:18;;;;;;;;;;;5.50;97.70;;;;;;5033186;28;19920;-71
2022/03/23 07:55:44;;;;;;;;;;;6.00;97.20;;;;;;5033567;28;19917;-72
2022/03/23 07:58:09;;;;;;;;;;;8.50;93.30;;;;;;5038196;28;20366;-72
2022/03/23 08:00:35;;;;;;;;;;;10.60;83.60;;;;;;5036347;28;19917;-70
2022/03/23 08:03:00;;;;;;;;;;;11.70;77.90;;;;;;5040341;28;20408;-70
2022/03/23 08:05:26;;;;;;;;;;;12.90;71.80;;;;;;5039645;28;19916;-70
2022/03/23 08:07:52;;;;;;;;;;;13.60;69.30;;;;;;5050023;28;20393;-70
2022/03/23 08:10:18;;;;;;;;;;;14.00;68.30;;;;;;5036188;28;19916;-71
2022/03/23 08:12:43;;;;;;;;;;;13.20;69.30;;;;;;5039765;28;20374;-71
2022/03/23 08:15:09;;;;;;;;;;;13.60;67.20;;;;;;5033035;28;20018;-70
2022/03/23 08:17:38;;;;;;;;;;;14.00;65.90;;;;;;5033016;28;19917;-70
2022/03/23 08:22:49;;;;;;;;;;;14.50;66.90;;;;;;5032814;28;20063;-70
2022/03/23 08:25:15;;;;;;;;;;;14.60;66.00;;;;;;5031295;28;19941;-71
2022/03/23 08:27:40;;;;;;;;;;;15.50;62.50;;;;;;5040038;28;19938;-70
2022/03/23 08:30:07;;;;;;;;;;;16.10;60.80;;;;;;5048023;28;19909;-71
2022/03/23 08:32:33;;;;;;;;;;;16.30;58.70;;;;;;5032946;28;19995;-70
2022/03/23 08:34:58;;;;;;;;;;;16.30;57.40;;;;;;5040800;28;19916;-70
2022/03/23 08:37:24;;;;;;;;;;;16.70;58.90;;;;;;5038902;28;19967;-71
2022/03/23 08:39:49;;;;;;;;;;;17.20;58.40;;;;;;5032564;28;20358;-70
2022/03/23 08:42:15;;;;;;;;;;;17.80;55.30;;;;;;5032629;28;19915;-71
2022/03/23 08:44:41;;;;;;;;;;;18.40;52.80;;;;;;5032182;28;19932;-70
2022/03/23 08:47:08;;;;;;;;;;;18.60;49.20;;;;;;5032860;28;20275;-71
2022/03/23 08:49:34;;;;;;;;;;;18.40;48.30;;;;;;5032275;28;19909;-70
2022/03/23 08:51:59;;;;;;;;;;;18.40;50.30;;;;;;5032022;28;19953;-70
2022/03/23 08:54:25;;;;;;;;;;;18.90;51.20;;;;;;5032029;28;19915;-71
2022/03/23 08:56:50;;;;;;;;;;;19.30;48.20;;;;;;5032320;28;19909;-70
2022/03/23 08:59:16;;;;;;;;;;;19.90;47.50;;;;;;5030965;28;19909;-71
2022/03/23 09:01:41;;;;;;;;;;;19.90;46.80;;;;;;5037566;28;19916;-71
2022/03/23 09:04:08;;;;;;;;;;;19.50;48.10;;;;;;5037193;28;19999;-71
2022/03/23 09:06:33;;;;;;;;;;;20.10;46.60;;;;;;5040207;28;19916;-71
2022/03/23 09:08:59;;;;;;;;;;;20.40;45.70;;;;;;5031646;28;19910;-71
2022/03/23 09:11:24;;;;;;;;;;;20.80;44.50;;;;;;5032860;28;20360;-71
2022/03/23 09:13:50;;;;;;;;;;;20.90;44.50;;;;;;5032555;28;19972;-71
2022/03/23 09:16:16;;;;;;;;;;;20.80;43.50;;;;;;5031670;28;20263;-71
2022/03/23 09:18:41;;;;;;;;;;;21.10;43.60;;;;;;5030577;28;19992;-71
2022/03/23 09:21:07;;;;;;;;;;;22.00;43.80;;;;;;5031906;28;19913;-70
2022/03/23 09:23:32;;;;;;;;;;;21.70;43.50;;;;;;5031595;28;19931;-71
2022/03/23 09:26:00;;;;;;;;;;;22.40;43.80;;;;;;5031738;28;20357;-73
2022/03/23 09:28:26;;;;;;;;;;;22.30;38.60;;;;;;5040039;28;19915;-72
2022/03/23 09:30:51;;;;;;;;;;;22.10;40.10;;;;;;5034293;28;20392;-73
2022/03/23 09:33:17;;;;;;;;;;;23.40;39.50;;;;;;5030958;28;20194;-73
2022/03/23 09:35:42;;;;;;;;;;;23.30;40.10;;;;;;5034537;28;19913;-72
2022/03/23 09:38:08;;;;;;;;;;;23.60;38.10;;;;;;5037171;28;19948;-72
2022/03/23 09:40:34;;;;;;;;;;;24.00;37.80;;;;;;5031723;28;20012;-72
2022/03/23 09:43:00;;;;;;;;;;;24.50;37.40;;;;;;5031464;28;20404;-71
2022/03/23 09:48:02;;;;;;;;;;;24.70;35.60;;;;;;5031257;28;20293;-72
2022/03/23 09:50:28;;;;;;;;;;;24.80;33.70;;;;;;5031429;28;19909;-72
2022/03/23 09:52:54;;;;;;;;;;;25.30;31.90;;;;;;5031557;28;19910;-72
2022/03/23 09:55:20;;;;;;;;;;;24.70;32.30;;;;;;5031063;28;20457;-72
2022/03/23 09:57:45;;;;;;;;;;;25.10;33.70;;;;;;5031474;28;20259;-72
2022/03/23 10:00:12;;;;;;;;;;;24.40;29.60;;;;;;5031464;28;19915;-72
2022/03/23 10:02:40;;;;;;;;;;;25.40;31.30;;;;;;5031164;28;19913;-72
2022/03/23 10:05:08;;;;;;;;;;;24.40;30.00;;;;;;5036493;28;19909;-72
2022/03/23 10:08:00;;;;;;;;;;;24.90;33.80;;;;;;5038131;28;19909;-72
2022/03/23 10:10:37;;;;;;;;;;;24.20;30.90;;;;;;5032793;28;19916;-71
2022/03/23 10:13:18;;;;;;;;;;;24.90;32.10;;;;;;5044979;28;19909;-72
2022/03/23 10:15:52;;;;;;;;;;;24.50;30.30;;;;;;5043156;28;19913;-72
2022/03/23 10:18:37;;;;;;;;;;;24.50;29.70;;;;;;5050490;28;19916;-72
2022/03/23 10:21:03;;;;;;;;;;;25.40;34.00;;;;;;5049672;28;19909;-71
2022/03/23 10:23:30;;;;;;;;;;;25.60;30.50;;;;;;5049776;28;19913;-72
2022/03/23 10:25:55;;;;;;;;;;;25.60;31.50;;;;;;5050448;28;19959;-73
2022/03/23 10:28:21;;;;;;;;;;;25.60;31.20;;;;;;5041576;28;19975;-72
2022/03/23 10:30:48;;;;;;;;;;;26.50;30.90;;;;;;5036088;28;20403;-72
2022/03/23 10:33:22;;;;;;;;;;;27.70;28.90;;;;;;5030846;28;19909;-73
2022/03/23 10:35:48;;;;;;;;;;;26.70;29.70;;;;;;5044497;28;19913;-72
2022/03/23 10:38:18;;;;;;;;;;;26.10;30.00;;;;;;5031229;28;20367;-72
2022/03/23 10:40:45;;;;;;;;;;;26.70;29.20;;;;;;5043807;28;20385;-72
2022/03/23 10:43:14;;;;;;;;;;;27.30;28.90;;;;;;5051539;28;20425;-72
2022/03/23 10:45:40;;;;;;;;;;;26.10;28.90;;;;;;5053983;28;19909;-72
2022/03/23 10:48:10;;;;;;;;;;;26.60;26.60;;;;;;5053899;28;19909;-73
2022/03/23 10:50:36;;;;;;;;;;;28.40;28.80;;;;;;5034609;28;19910;-72
2022/03/23 10:53:02;;;;;;;;;;;28.80;27.20;;;;;;5038554;28;19909;-73
2022/03/23 10:55:29;;;;;;;;;;;28.60;25.60;;;;;;5034184;28;19913;-70
2022/03/23 10:58:01;;;;;;;;;;;28.20;26.90;;;;;;5047081;28;19908;-71
2022/03/23 11:00:29;;;;;;;;;;;28.80;26.90;;;;;;5052117;28;19963;-71
2022/03/23 11:02:55;;;;;;;;;;;28.40;24.40;;;;;;5049794;28;19961;-72
2022/03/23 11:05:32;;;;;;;;;;;27.50;24.90;;;;;;5040893;28;19913;-71
2022/03/23 11:08:10;;;;;;;;;;;25.80;26.90;;;;;;5040794;28;19995;-71
2022/03/23 11:16:09;;;;;;;;;;;28.20;27.60;;;;;;5048438;28;19923;-72
2022/03/23 11:18:35;;;;;;;;;;;27.90;26.00;;;;;;5053114;28;19909;-72
2022/03/23 11:21:00;;;;;;;;;;;28.30;25.70;;;;;;5053155;28;20358;-71
2022/03/23 11:23:27;;;;;;;;;;;26.10;24.80;;;;;;5058451;28;20004;-71
2022/03/23 11:25:55;;;;;;;;;;;27.30;27.20;;;;;;5058253;28;19961;-72
2022/03/23 11:28:21;;;;;;;;;;;27.60;25.70;;;;;;5049114;28;19952;-71
2022/03/23 11:30:47;;;;;;;;;;;26.40;25.70;;;;;;5042337;28;19952;-71
2022/03/23 11:33:21;;;;;;;;;;;27.50;26.00;;;;;;5039875;28;19948;-72
2022/03/23 11:35:50;;;;;;;;;;;27.50;24.40;;;;;;5040288;28;19913;-72
2022/03/23 11:38:17;;;;;;;;;;;27.50;26.70;;;;;;5033586;28;19909;-72
2022/03/23 11:40:44;;;;;;;;;;;26.10;26.30;;;;;;5033503;28;19913;-71
2022/03/23 11:43:10;;;;;;;;;;;25.00;26.50;;;;;;5033259;28;19913;-73
2022/03/23 11:45:37;;;;;;;;;;;25.70;26.70;;;;;;5033844;28;19909;-73
2022/03/23 11:48:13;;;;;;;;;;;27.60;26.70;;;;;;5033323;28;20374;-73
2022/03/23 11:50:50;;;;;;;;;;;28.00;26.30;;;;;;5033466;28;19913;-73
2022/03/23 11:53:19;;;;;;;;;;;28.80;24.20;;;;;;5031821;28;19917;-73
2022/03/23 11:55:54;;;;;;;;;;;28.20;25.50;;;;;;5032645;28;20179;-73
2022/03/23 11:58:23;;;;;;;;;;;27.50;25.50;;;;;;5031953;28;20317;-73
2022/03/23 12:00:56;;;;;;;;;;;26.40;25.90;;;;;;5033151;28;20002;-73
2022/03/23 12:03:40;;;;;;;;;;;27.40;25.40;;;;;;5030076;28;19909;-72
2022/03/23 12:06:09;;;;;;;;;;;26.10;24.10;;;;;;5045087;28;19908;-73
2022/03/23 12:08:48;;;;;;;;;;;21.50;28.40;;;;;;5035293;28;20003;-73
2022/03/23 12:11:31;;;;;;;;;;;19.70;32.40;;;;;;5033151;28;20274;-69
2022/03/23 12:14:01;;;;;;;;;;;18.40;34.00;;;;;;5032562;28;20425;-72
2022/03/23 12:16:45;;;;;;;;;;;17.90;34.40;;;;;;5032989;28;19917;-72
2022/03/23 12:19:11;;;;;;;;;;;17.70;37.80;;;;;;5046692;28;19948;-72
2022/03/23 12:22:05;;;;;;;;;;;17.50;32.90;;;;;;5051993;28;19947;-73
2022/03/23 12:24:41;;;;;;;;;;;17.10;34.90;;;;;;5048206;28;20277;-73
2022/03/23 12:27:31;;;;;;;;;;;17.20;35.30;;;;;;5049257;28;19909;-73
2022/03/23 12:29:58;;;;;;;;;;;17.20;35.30;;;;;;5042939;28;19909;-73
2022/03/23 12:32:24;;;;;;;;;;;17.40;35.60;;;;;;5032395;28;19909;-73
2022/03/23 12:34:51;;;;;;;;;;;17.50;36.70;;;;;;5034641;28;19923;-73
2022/03/23 12:37:18;;;;;;;;;;;17.00;34.20;;;;;;5042843;28;19909;-73
2022/03/23 12:39:45;;;;;;;;;;;17.10;34.30;;;;;;5032351;28;19975;-72
2022/03/23 12:42:16;;;;;;;;;;;16.70;36.10;;;;;;5032174;28;20282;-73
2022/03/23 12:44:44;;;;;;;;;;;16.70;38.50;;;;;;5036240;28;19920;-71
2022/03/23 12:47:20;;;;;;;;;;;16.60;35.80;;;;;;5040305;28;20124;-71
2022/03/23 12:58:23;;;;;;;;;;;16.20;35.30;;;;;;5051228;28;20423;-72
2022/03/23 13:00:50;;;;;;;;;;;16.40;35.90;;;;;;5048259;28;19917;-72
2022/03/23 13:03:18;;;;;;;;;;;16.40;34.90;;;;;;5037939;28;19917;-72
2022/03/23 13:05:57;;;;;;;;;;;16.40;35.60;;;;;;5041168;28;19913;-71
2022/03/23 13:08:38;;;;;;;;;;;16.40;35.50;;;;;;5037072;28;19944;-72
2022/03/23 13:11:08;;;;;;;;;;;16.40;34.70;;;;;;5031966;28;20336;-71
2022/03/23 13:13:35;;;;;;;;;;;16.20;34.80;;;;;;5031757;28;20255;-71
2022/03/23 13:16:01;;;;;;;;;;;16.20;35.20;;;;;;5031548;28;19924;-71
2022/03/23 13:18:31;;;;;;;;;;;16.40;36.20;;;;;;5031929;28;19949;-72
2022/03/23 13:20:57;;;;;;;;;;;16.40;36.10;;;;;;5031909;28;20278;-72
2022/03/23 13:23:23;;;;;;;;;;;16.40;34.50;;;;;;5031319;28;20103;-71
2022/03/23 13:26:09;;;;;;;;;;;16.30;36.10;;;;;;5031895;28;19917;-71
2022/03/23 13:28:38;;;;;;;;;;;16.30;34.70;;;;;;5039173;28;19909;-72
2022/03/23 13:31:07;;;;;;;;;;;16.30;34.60;;;;;;5037348;28;19909;-72
2022/03/23 13:33:37;;;;;;;;;;;16.20;33.80;;;;;;5031537;28;20324;-72
2022/03/23 13:36:03;;;;;;;;;;;16.50;34.20;;;;;;5044601;28;19944;-71
2022/03/23 13:38:34;;;;;;;;;;;16.40;34.10;;;;;;5033934;28;19913;-72
2022/03/23 13:43:44;;;;;;;;;;;16.30;34.00;;;;;;5031688;28;19962;-72
2022/03/23 13:46:09;;;;;;;;;;;16.20;33.50;;;;;;5031538;28;19913;-71
2022/03/23 13:48:36;;;;;;;;;;;16.30;32.70;;;;;;5031555;28;19915;-72
2022/03/23 13:51:02;;;;;;;;;;;16.20;34.10;;;;;;5031335;28;19976;-71
2022/03/23 13:53:27;;;;;;;;;;;16.40;33.80;;;;;;5031287;28;19920;-72
2022/03/23 13:55:53;;;;;;;;;;;16.50;33.10;;;;;;5031335;28;19952;-71
2022/03/23 13:58:20;;;;;;;;;;;16.20;32.50;;;;;;5031565;28;19909;-72
2022/03/23 14:00:50;;;;;;;;;;;16.20;33.50;;;;;;5031309;28;19909;-71
2022/03/23 14:03:20;;;;;;;;;;;16.30;33.20;;;;;;5031464;28;19913;-71
2022/03/23 14:06:00;;;;;;;;;;;16.20;33.20;;;;;;5035473;28;20377;-71
2022/03/23 14:08:26;;;;;;;;;;;16.20;33.60;;;;;;5040436;28;19924;-70
2022/03/23 14:10:52;;;;;;;;;;;16.50;33.60;;;;;;5031052;28;20366;-71
2022/03/23 14:13:17;;;;;;;;;;;16.40;30.70;;;;;;5031024;28;20003;-71
2022/03/23 14:15:50;;;;;;;;;;;16.20;33.70;;;;;;5031054;28;20393;-71
2022/03/23 14:18:20;;;;;;;;;;;16.20;34.60;;;;;;5032967;28;19945;-70
2022/03/23 14:20:52;;;;;;;;;;;16.60;32.90;;;;;;5034852;28;19916;-71
2022/03/23 14:23:19;;;;;;;;;;;16.70;35.40;;;;;;5034828;28;20350;-71
2022/03/23 14:25:46;;;;;;;;;;;16.40;33.60;;;;;;5035172;28;19909;-72
2022/03/23 14:28:21;;;;;;;;;;;16.10;33.40;;;;;;5036162;28;20351;-73
2022/03/23 14:30:49;;;;;;;;;;;16.10;33.30;;;;;;5044259;28;20153;-71
2022/03/23 14:33:21;;;;;;;;;;;16.40;34.30;;;;;;5034423;28;19909;-72
2022/03/23 14:35:47;;;;;;;;;;;16.20;32.40;;;;;;5050056;28;19920;-71
2022/03/23 14:38:14;;;;;;;;;;;16.50;34.10;;;;;;5034891;28;19909;-71
2022/03/23 14:40:53;;;;;;;;;;;16.50;35.20;;;;;;5034626;28;19909;-71
2022/03/23 14:43:30;;;;;;;;;;;16.30;34.20;;;;;;5034458;28;20004;-72
2022/03/23 14:45:57;;;;;;;;;;;16.30;32.40;;;;;;5034413;28;20007;-72
2022/03/23 14:48:27;;;;;;;;;;;16.50;35.10;;;;;;5034746;28;20373;-72
2022/03/23 14:50:54;;;;;;;;;;;16.50;34.60;;;;;;5034403;28;19909;-72
2022/03/23 14:53:25;;;;;;;;;;;16.30;34.30;;;;;;5035313;28;20020;-72
2022/03/23 14:55:51;;;;;;;;;;;16.10;34.00;;;;;;5036511;28;20385;-72
2022/03/23 14:58:25;;;;;;;;;;;16.40;36.00;;;;;;5034412;28;19916;-72
2022/03/23 15:00:51;;;;;;;;;;;16.70;35.10;;;;;;5039895;28;19909;-72
2022/03/23 15:03:17;;;;;;;;;;;17.70;34.30;;;;;;5041969;28;20385;-71